sensor_id;sensor_type;location;lat;lon;timestamp;temperature;humidity
51021;DHT22;38907;45.562;8.856;2023-03-04T00:01:25;9.90;99.90
51021;DHT22;38907;45.562;8.856;2023-03-04T00:06:28;10.00;99.90
51021;DHT22;38907;45.562;8.856;2023-03-04T00:11:30;10.00;99.90
51021;DHT22;38907;45.562;8.856;2023-03-04T00:16:32;10.10;99.90
51021;DHT22;38907;45.562;8.856;2023-03-04T00:21:36;9.80;99.90
51021;DHT22;38907;45.562;8.856;2023-03-04T00:26:37;9.90;99.90
51021;DHT22;38907;45.562;8.856;2023-03-04T00:31:39;9.90;99.90
51021;DHT22;38907;45.562;8.856;2023-03-04T00:36:42;9.80;99.90
51021;DHT22;38907;45.562;8.856;2023-03-04T00:41:44;9.60;99.90
51021;DHT22;38907;45.562;8.856;2023-03-04T00:46:46;9.60;99.90
51021;DHT22;38907;45.562;8.856;2023-03-04T00:51:50;9.50;99.90
51021;DHT22;38907;45.562;8.856;2023-03-04T00:56:51;9.60;99.90
51021;DHT22;38907;45.562;8.856;2023-03-04T01:01:53;9.60;99.90
51021;DHT22;38907;45.562;8.856;2023-03-04T01:06:56;9.50;99.90
51021;DHT22;38907;45.562;8.856;2023-03-04T01:11:58;9.60;99.90
51021;DHT22;38907;45.562;8.856;2023-03-04T01:17:00;9.50;99.90
51021;DHT22;38907;45.562;8.856;2023-03-04T01:22:03;9.40;99.90
51021;DHT22;38907;45.562;8.856;2023-03-04T01:27:05;9.30;99.90
51021;DHT22;38907;45.562;8.856;2023-03-04T01:32:07;9.20;99.90
51021;DHT22;38907;45.562;8.856;2023-03-04T01:37:11;9.20;99.90
51021;DHT22;38907;45.562;8.856;2023-03-04T01:42:17;9.10;99.90
51021;DHT22;38907;45.562;8.856;2023-03-04T01:47:21;9.10;99.90
51021;DHT22;38907;45.562;8.856;2023-03-04T01:52:26;9.10;99.90
51021;DHT22;38907;45.562;8.856;2023-03-04T01:57:34;9.30;99.90
51021;DHT22;38907;45.562;8.856;2023-03-04T02:02:36;9.30;99.90
51021;DHT22;38907;45.562;8.856;2023-03-04T02:07:39;9.10;99.90
51021;DHT22;38907;45.562;8.856;2023-03-04T02:12:41;9.00;99.90
51021;DHT22;38907;45.562;8.856;2023-03-04T02:17:43;9.00;99.90
51021;DHT22;38907;45.562;8.856;2023-03-04T02:22:51;9.10;99.90
51021;DHT22;38907;45.562;8.856;2023-03-04T02:27:56;9.10;99.90
51021;DHT22;38907;45.562;8.856;2023-03-04T02:32:57;9.10;99.90
51021;DHT22;38907;45.562;8.856;2023-03-04T02:37:59;9.10;99.90
51021;DHT22;38907;45.562;8.856;2023-03-04T02:43:04;9.10;99.90
51021;DHT22;38907;45.562;8.856;2023-03-04T02:48:07;9.10;99.90
51021;DHT22;38907;45.562;8.856;2023-03-04T02:53:09;9.10;99.90
51021;DHT22;38907;45.562;8.856;2023-03-04T02:58:13;9.20;99.90
51021;DHT22;38907;45.562;8.856;2023-03-04T03:03:15;9.30;99.90
51021;DHT22;38907;45.562;8.856;2023-03-04T03:08:16;9.30;99.90
51021;DHT22;38907;45.562;8.856;2023-03-04T03:13:20;9.20;99.90
51021;DHT22;38907;45.562;8.856;2023-03-04T03:18:21;9.20;99.90
51021;DHT22;38907;45.562;8.856;2023-03-04T03:23:23;9.20;99.90
51021;DHT22;38907;45.562;8.856;2023-03-04T03:28:26;9.20;99.90
51021;DHT22;38907;45.562;8.856;2023-03-04T03:33:28;9.10;99.90
51021;DHT22;38907;45.562;8.856;2023-03-04T03:38:30;9.20;99.90
51021;DHT22;38907;45.562;8.856;2023-03-04T03:43:34;9.10;99.90
51021;DHT22;38907;45.562;8.856;2023-03-04T03:48:35;9.10;99.90
51021;DHT22;38907;45.562;8.856;2023-03-04T03:53:37;8.90;99.90
51021;DHT22;38907;45.562;8.856;2023-03-04T03:58:40;8.90;99.90
51021;DHT22;38907;45.562;8.856;2023-03-04T04:03:42;8.80;99.90
51021;DHT22;38907;45.562;8.856;2023-03-04T04:08:44;8.60;99.90
51021;DHT22;38907;45.562;8.856;2023-03-04T04:13:47;8.60;99.90
51021;DHT22;38907;45.562;8.856;2023-03-04T04:18:49;8.40;99.90
51021;DHT22;38907;45.562;8.856;2023-03-04T04:23:51;8.40;99.90
51021;DHT22;38907;45.562;8.856;2023-03-04T04:28:54;7.90;99.90
51021;DHT22;38907;45.562;8.856;2023-03-04T04:33:56;7.70;99.90
51021;DHT22;38907;45.562;8.856;2023-03-04T04:38:58;7.90;99.90
51021;DHT22;38907;45.562;8.856;2023-03-04T04:44:01;7.80;99.90
51021;DHT22;38907;45.562;8.856;2023-03-04T04:49:03;7.70;99.90
51021;DHT22;38907;45.562;8.856;2023-03-04T04:54:06;7.80;99.90
51021;DHT22;38907;45.562;8.856;2023-03-04T04:59:09;7.60;99.90
51021;DHT22;38907;45.562;8.856;2023-03-04T05:04:11;7.40;99.90
51021;DHT22;38907;45.562;8.856;2023-03-04T05:09:13;7.20;99.90
51021;DHT22;38907;45.562;8.856;2023-03-04T05:14:16;7.10;99.90
51021;DHT22;38907;45.562;8.856;2023-03-04T05:19:18;7.20;99.90
51021;DHT22;38907;45.562;8.856;2023-03-04T05:24:21;7.30;99.90
51021;DHT22;38907;45.562;8.856;2023-03-04T05:29:24;7.20;99.90
51021;DHT22;38907;45.562;8.856;2023-03-04T05:34:26;7.40;99.90
51021;DHT22;38907;45.562;8.856;2023-03-04T05:39:28;7.50;99.90
51021;DHT22;38907;45.562;8.856;2023-03-04T05:44:31;7.50;99.90
51021;DHT22;38907;45.562;8.856;2023-03-04T05:49:33;7.50;99.90
51021;DHT22;38907;45.562;8.856;2023-03-04T05:54:35;7.40;99.90
51021;DHT22;38907;45.562;8.856;2023-03-04T05:59:38;7.50;99.90
51021;DHT22;38907;45.562;8.856;2023-03-04T06:04:40;7.40;99.90
51021;DHT22;38907;45.562;8.856;2023-03-04T06:09:42;7.30;99.90
51021;DHT22;38907;45.562;8.856;2023-03-04T06:14:46;7.50;99.90
51021;DHT22;38907;45.562;8.856;2023-03-04T06:19:47;7.60;99.90
51021;DHT22;38907;45.562;8.856;2023-03-04T06:24:49;7.50;99.90
51021;DHT22;38907;45.562;8.856;2023-03-04T06:29:53;7.60;99.90
51021;DHT22;38907;45.562;8.856;2023-03-04T06:34:54;7.60;99.90
51021;DHT22;38907;45.562;8.856;2023-03-04T06:39:56;7.70;99.90
51021;DHT22;38907;45.562;8.856;2023-03-04T06:44:59;7.50;99.90
51021;DHT22;38907;45.562;8.856;2023-03-04T06:50:02;7.40;99.90
51021;DHT22;38907;45.562;8.856;2023-03-04T06:55:05;7.40;99.90
51021;DHT22;38907;45.562;8.856;2023-03-04T07:00:10;7.60;99.90
51021;DHT22;38907;45.562;8.856;2023-03-04T07:05:11;7.60;99.90
51021;DHT22;38907;45.562;8.856;2023-03-04T07:10:13;7.80;99.90
51021;DHT22;38907;45.562;8.856;2023-03-04T07:15:17;7.90;99.90
51021;DHT22;38907;45.562;8.856;2023-03-04T07:20:19;8.00;99.90
51021;DHT22;38907;45.562;8.856;2023-03-04T07:25:21;8.10;99.90
51021;DHT22;38907;45.562;8.856;2023-03-04T07:30:24;8.20;99.90
51021;DHT22;38907;45.562;8.856;2023-03-04T07:35:26;8.40;99.90
51021;DHT22;38907;45.562;8.856;2023-03-04T07:40:28;8.50;99.90
51021;DHT22;38907;45.562;8.856;2023-03-04T07:45:31;8.70;99.90
51021;DHT22;38907;45.562;8.856;2023-03-04T07:50:33;8.80;99.90
51021;DHT22;38907;45.562;8.856;2023-03-04T07:55:35;8.90;99.90
51021;DHT22;38907;45.562;8.856;2023-03-04T08:00:38;9.00;99.90
51021;DHT22;38907;45.562;8.856;2023-03-04T08:05:41;9.20;99.90
51021;DHT22;38907;45.562;8.856;2023-03-04T08:10:43;9.40;99.90
51021;DHT22;38907;45.562;8.856;2023-03-04T08:15:47;9.50;99.90
51021;DHT22;38907;45.562;8.856;2023-03-04T08:20:49;9.60;99.90
51021;DHT22;38907;45.562;8.856;2023-03-04T08:25:52;9.80;99.90
51021;DHT22;38907;45.562;8.856;2023-03-04T08:30:55;9.90;99.90
51021;DHT22;38907;45.562;8.856;2023-03-04T08:35:57;10.00;99.90
51021;DHT22;38907;45.562;8.856;2023-03-04T08:40:59;10.20;99.90
51021;DHT22;38907;45.562;8.856;2023-03-04T08:46:04;10.30;99.90
51021;DHT22;38907;45.562;8.856;2023-03-04T08:51:07;10.40;99.90
51021;DHT22;38907;45.562;8.856;2023-03-04T08:56:09;10.50;99.90
51021;DHT22;38907;45.562;8.856;2023-03-04T09:01:13;10.60;99.90
51021;DHT22;38907;45.562;8.856;2023-03-04T09:06:16;10.70;99.90
51021;DHT22;38907;45.562;8.856;2023-03-04T09:11:18;10.90;99.90
51021;DHT22;38907;45.562;8.856;2023-03-04T09:16:22;10.80;99.90
51021;DHT22;38907;45.562;8.856;2023-03-04T09:21:23;10.90;99.90
51021;DHT22;38907;45.562;8.856;2023-03-04T09:26:27;11.10;99.90
51021;DHT22;38907;45.562;8.856;2023-03-04T09:31:30;11.20;99.90
51021;DHT22;38907;45.562;8.856;2023-03-04T09:36:32;11.30;99.90
51021;DHT22;38907;45.562;8.856;2023-03-04T09:41:38;11.00;99.90
51021;DHT22;38907;45.562;8.856;2023-03-04T09:46:43;11.30;99.90
51021;DHT22;38907;45.562;8.856;2023-03-04T09:52:00;11.20;99.90
51021;DHT22;38907;45.562;8.856;2023-03-04T09:57:18;11.50;99.90
51021;DHT22;38907;45.562;8.856;2023-03-04T10:02:29;11.60;99.90
51021;DHT22;38907;45.562;8.856;2023-03-04T10:07:36;11.70;99.90
51021;DHT22;38907;45.562;8.856;2023-03-04T10:12:41;11.90;99.90
51021;DHT22;38907;45.562;8.856;2023-03-04T10:17:47;11.90;99.90
51021;DHT22;38907;45.562;8.856;2023-03-04T10:22:52;11.90;99.90
51021;DHT22;38907;45.562;8.856;2023-03-04T10:27:59;12.00;99.90
51021;DHT22;38907;45.562;8.856;2023-03-04T10:33:11;12.10;99.90
51021;DHT22;38907;45.562;8.856;2023-03-04T10:38:13;12.10;99.90
51021;DHT22;38907;45.562;8.856;2023-03-04T10:43:17;12.20;99.90
51021;DHT22;38907;45.562;8.856;2023-03-04T10:48:23;12.30;99.90
51021;DHT22;38907;45.562;8.856;2023-03-04T10:53:30;12.40;99.90
51021;DHT22;38907;45.562;8.856;2023-03-04T10:58:34;12.50;99.90
51021;DHT22;38907;45.562;8.856;2023-03-04T11:03:37;12.50;99.90
51021;DHT22;38907;45.562;8.856;2023-03-04T11:08:40;12.60;99.90
51021;DHT22;38907;45.562;8.856;2023-03-04T11:13:50;12.70;99.90
51021;DHT22;38907;45.562;8.856;2023-03-04T11:18:57;12.80;99.90
51021;DHT22;38907;45.562;8.856;2023-03-04T11:24:02;12.80;99.90
51021;DHT22;38907;45.562;8.856;2023-03-04T11:29:10;13.00;99.90
51021;DHT22;38907;45.562;8.856;2023-03-04T11:34:22;13.20;99.90
51021;DHT22;38907;45.562;8.856;2023-03-04T11:39:35;13.30;99.90
51021;DHT22;38907;45.562;8.856;2023-03-04T11:44:38;13.40;99.90
51021;DHT22;38907;45.562;8.856;2023-03-04T11:50:01;13.50;99.90
51021;DHT22;38907;45.562;8.856;2023-03-04T11:55:22;13.50;99.90
51021;DHT22;38907;45.562;8.856;2023-03-04T12:00:33;13.50;99.90
51021;DHT22;38907;45.562;8.856;2023-03-04T12:05:45;13.60;99.90
51021;DHT22;38907;45.562;8.856;2023-03-04T12:10:57;13.70;99.90
51021;DHT22;38907;45.562;8.856;2023-03-04T12:16:11;13.70;99.90
51021;DHT22;38907;45.562;8.856;2023-03-04T12:21:27;13.80;99.90
51021;DHT22;38907;45.562;8.856;2023-03-04T12:26:37;14.00;99.90
51021;DHT22;38907;45.562;8.856;2023-03-04T12:31:42;14.00;99.90
51021;DHT22;38907;45.562;8.856;2023-03-04T12:36:55;13.90;99.90
51021;DHT22;38907;45.562;8.856;2023-03-04T12:42:08;13.80;99.90
51021;DHT22;38907;45.562;8.856;2023-03-04T12:47:26;13.70;99.90
51021;DHT22;38907;45.562;8.856;2023-03-04T12:52:39;14.10;99.90
51021;DHT22;38907;45.562;8.856;2023-03-04T12:57:45;14.40;99.90
51021;DHT22;38907;45.562;8.856;2023-03-04T13:03:02;14.20;99.90
51021;DHT22;38907;45.562;8.856;2023-03-04T13:08:20;14.20;99.90
51021;DHT22;38907;45.562;8.856;2023-03-04T13:13:36;14.30;99.90
51021;DHT22;38907;45.562;8.856;2023-03-04T13:18:38;14.40;99.90
51021;DHT22;38907;45.562;8.856;2023-03-04T13:23:41;14.40;99.90
51021;DHT22;38907;45.562;8.856;2023-03-04T13:28:44;14.40;99.90
51021;DHT22;38907;45.562;8.856;2023-03-04T13:39:25;14.50;99.90
51021;DHT22;38907;45.562;8.856;2023-03-04T13:44:57;14.50;99.90
51021;DHT22;38907;45.562;8.856;2023-03-04T13:55:41;14.50;99.90
51021;DHT22;38907;45.562;8.856;2023-03-04T14:00:47;14.40;99.90
51021;DHT22;38907;45.562;8.856;2023-03-04T14:06:07;14.50;99.90
51021;DHT22;38907;45.562;8.856;2023-03-04T14:11:13;14.50;99.90
51021;DHT22;38907;45.562;8.856;2023-03-04T14:16:19;14.50;99.90
51021;DHT22;38907;45.562;8.856;2023-03-04T14:21:21;14.50;99.90
51021;DHT22;38907;45.562;8.856;2023-03-04T14:26:24;14.50;99.90
51021;DHT22;38907;45.562;8.856;2023-03-04T14:31:27;14.50;99.90
51021;DHT22;38907;45.562;8.856;2023-03-04T14:36:32;14.50;99.90
51021;DHT22;38907;45.562;8.856;2023-03-04T14:41:38;14.40;99.90
51021;DHT22;38907;45.562;8.856;2023-03-04T14:46:42;14.50;99.90
51021;DHT22;38907;45.562;8.856;2023-03-04T14:51:48;14.60;99.90
51021;DHT22;38907;45.562;8.856;2023-03-04T14:56:51;14.50;99.90
51021;DHT22;38907;45.562;8.856;2023-03-04T15:01:53;14.40;99.90
51021;DHT22;38907;45.562;8.856;2023-03-04T15:06:55;14.30;99.90
51021;DHT22;38907;45.562;8.856;2023-03-04T15:12:01;14.40;99.90
51021;DHT22;38907;45.562;8.856;2023-03-04T15:17:03;14.40;99.90
51021;DHT22;38907;45.562;8.856;2023-03-04T15:22:06;14.40;99.90
51021;DHT22;38907;45.562;8.856;2023-03-04T15:27:11;14.30;99.90
51021;DHT22;38907;45.562;8.856;2023-03-04T15:32:13;14.40;99.90
51021;DHT22;38907;45.562;8.856;2023-03-04T15:37:18;14.40;99.90
51021;DHT22;38907;45.562;8.856;2023-03-04T15:42:23;14.30;99.90
51021;DHT22;38907;45.562;8.856;2023-03-04T15:47:25;14.30;99.90
51021;DHT22;38907;45.562;8.856;2023-03-04T15:52:26;14.20;99.90
51021;DHT22;38907;45.562;8.856;2023-03-04T15:57:30;14.20;99.90
51021;DHT22;38907;45.562;8.856;2023-03-04T16:02:31;14.20;99.90
51021;DHT22;38907;45.562;8.856;2023-03-04T16:07:34;14.20;99.90
51021;DHT22;38907;45.562;8.856;2023-03-04T16:12:38;14.20;99.90
51021;DHT22;38907;45.562;8.856;2023-03-04T16:17:41;14.10;99.90
51021;DHT22;38907;45.562;8.856;2023-03-04T16:22:44;14.10;99.90
51021;DHT22;38907;45.562;8.856;2023-03-04T16:27:48;14.00;99.90
51021;DHT22;38907;45.562;8.856;2023-03-04T16:32:51;13.90;99.90
51021;DHT22;38907;45.562;8.856;2023-03-04T16:37:53;13.80;99.90
51021;DHT22;38907;45.562;8.856;2023-03-04T16:42:57;13.80;99.90
51021;DHT22;38907;45.562;8.856;2023-03-04T16:47:58;13.70;99.90
51021;DHT22;38907;45.562;8.856;2023-03-04T16:53:00;13.60;99.90
51021;DHT22;38907;45.562;8.856;2023-03-04T16:58:04;13.50;99.90
51021;DHT22;38907;45.562;8.856;2023-03-04T17:03:09;13.40;99.90
51021;DHT22;38907;45.562;8.856;2023-03-04T17:08:11;13.30;99.90
51021;DHT22;38907;45.562;8.856;2023-03-04T17:13:14;13.10;99.90
51021;DHT22;38907;45.562;8.856;2023-03-04T17:18:16;13.00;99.90
51021;DHT22;38907;45.562;8.856;2023-03-04T17:23:18;12.90;99.90
51021;DHT22;38907;45.562;8.856;2023-03-04T17:28:21;12.90;99.90
51021;DHT22;38907;45.562;8.856;2023-03-04T17:33:23;12.70;99.90
51021;DHT22;38907;45.562;8.856;2023-03-04T17:38:25;12.60;99.90
51021;DHT22;38907;45.562;8.856;2023-03-04T17:43:28;12.60;99.90
51021;DHT22;38907;45.562;8.856;2023-03-04T17:48:30;12.50;99.90
51021;DHT22;38907;45.562;8.856;2023-03-04T17:53:32;12.40;99.90
51021;DHT22;38907;45.562;8.856;2023-03-04T17:58:36;12.30;99.90
51021;DHT22;38907;45.562;8.856;2023-03-04T18:03:38;12.30;99.90
51021;DHT22;38907;45.562;8.856;2023-03-04T18:08:39;12.20;99.90
51021;DHT22;38907;45.562;8.856;2023-03-04T18:13:43;12.10;99.90
51021;DHT22;38907;45.562;8.856;2023-03-04T18:18:45;12.10;99.90
51021;DHT22;38907;45.562;8.856;2023-03-04T18:23:47;11.90;99.90
51021;DHT22;38907;45.562;8.856;2023-03-04T18:28:51;11.80;99.90
51021;DHT22;38907;45.562;8.856;2023-03-04T18:33:53;11.70;99.90
51021;DHT22;38907;45.562;8.856;2023-03-04T18:38:56;11.60;99.90
51021;DHT22;38907;45.562;8.856;2023-03-04T18:44:00;11.50;99.90
51021;DHT22;38907;45.562;8.856;2023-03-04T18:49:04;11.50;99.90
51021;DHT22;38907;45.562;8.856;2023-03-04T18:54:08;11.30;99.90
51021;DHT22;38907;45.562;8.856;2023-03-04T18:59:14;11.30;99.90
51021;DHT22;38907;45.562;8.856;2023-03-04T19:04:18;11.20;99.90
51021;DHT22;38907;45.562;8.856;2023-03-04T19:09:20;11.20;99.90
51021;DHT22;38907;45.562;8.856;2023-03-04T19:14:23;11.20;99.90
51021;DHT22;38907;45.562;8.856;2023-03-04T19:19:25;11.10;99.90
51021;DHT22;38907;45.562;8.856;2023-03-04T19:24:27;11.00;99.90
51021;DHT22;38907;45.562;8.856;2023-03-04T19:29:30;10.90;99.90
51021;DHT22;38907;45.562;8.856;2023-03-04T19:34:32;10.70;99.90
51021;DHT22;38907;45.562;8.856;2023-03-04T19:39:34;10.60;99.90
51021;DHT22;38907;45.562;8.856;2023-03-04T19:44:38;10.50;99.90
51021;DHT22;38907;45.562;8.856;2023-03-04T19:49:40;10.50;99.90
51021;DHT22;38907;45.562;8.856;2023-03-04T19:54:42;10.60;99.90
51021;DHT22;38907;45.562;8.856;2023-03-04T19:59:46;10.60;99.90
51021;DHT22;38907;45.562;8.856;2023-03-04T20:04:48;10.50;99.90
51021;DHT22;38907;45.562;8.856;2023-03-04T20:09:49;10.40;99.90
51021;DHT22;38907;45.562;8.856;2023-03-04T20:14:53;10.10;99.90
51021;DHT22;38907;45.562;8.856;2023-03-04T20:19:55;10.00;99.90
51021;DHT22;38907;45.562;8.856;2023-03-04T20:24:57;9.90;99.90
51021;DHT22;38907;45.562;8.856;2023-03-04T20:30:00;10.10;99.90
51021;DHT22;38907;45.562;8.856;2023-03-04T20:35:02;10.20;99.90
51021;DHT22;38907;45.562;8.856;2023-03-04T20:40:05;10.20;99.90
51021;DHT22;38907;45.562;8.856;2023-03-04T20:45:09;10.00;99.90
51021;DHT22;38907;45.562;8.856;2023-03-04T20:50:12;9.90;99.90
51021;DHT22;38907;45.562;8.856;2023-03-04T20:55:14;9.90;99.90
51021;DHT22;38907;45.562;8.856;2023-03-04T21:00:18;9.80;99.90
51021;DHT22;38907;45.562;8.856;2023-03-04T21:05:20;9.70;99.90
51021;DHT22;38907;45.562;8.856;2023-03-04T21:10:22;9.30;99.90
51021;DHT22;38907;45.562;8.856;2023-03-04T21:15:26;9.30;99.90
51021;DHT22;38907;45.562;8.856;2023-03-04T21:20:27;9.30;99.90
51021;DHT22;38907;45.562;8.856;2023-03-04T21:25:29;9.50;99.90
51021;DHT22;38907;45.562;8.856;2023-03-04T21:30:33;9.40;99.90
51021;DHT22;38907;45.562;8.856;2023-03-04T21:35:35;9.30;99.90
51021;DHT22;38907;45.562;8.856;2023-03-04T21:40:37;9.40;99.90
51021;DHT22;38907;45.562;8.856;2023-03-04T21:45:40;9.40;99.90
51021;DHT22;38907;45.562;8.856;2023-03-04T21:50:42;9.30;99.90
51021;DHT22;38907;45.562;8.856;2023-03-04T21:55:45;9.20;99.90
51021;DHT22;38907;45.562;8.856;2023-03-04T22:00:48;9.40;99.90
51021;DHT22;38907;45.562;8.856;2023-03-04T22:05:51;9.40;99.90
51021;DHT22;38907;45.562;8.856;2023-03-04T22:10:53;9.40;99.90
51021;DHT22;38907;45.562;8.856;2023-03-04T22:15:57;9.40;99.90
51021;DHT22;38907;45.562;8.856;2023-03-04T22:21:00;9.30;99.90
51021;DHT22;38907;45.562;8.856;2023-03-04T22:26:04;9.20;99.90
51021;DHT22;38907;45.562;8.856;2023-03-04T22:31:14;9.10;99.90
51021;DHT22;38907;45.562;8.856;2023-03-04T22:36:17;9.00;99.90
51021;DHT22;38907;45.562;8.856;2023-03-04T22:41:20;8.80;99.90
51021;DHT22;38907;45.562;8.856;2023-03-04T22:46:24;8.90;99.90
51021;DHT22;38907;45.562;8.856;2023-03-04T22:51:27;8.90;99.90
51021;DHT22;38907;45.562;8.856;2023-03-04T22:56:29;8.80;99.90
51021;DHT22;38907;45.562;8.856;2023-03-04T23:01:32;8.80;99.90
51021;DHT22;38907;45.562;8.856;2023-03-04T23:06:34;8.60;99.90
51021;DHT22;38907;45.562;8.856;2023-03-04T23:11:37;8.50;99.90
51021;DHT22;38907;45.562;8.856;2023-03-04T23:16:40;8.60;99.90
51021;DHT22;38907;45.562;8.856;2023-03-04T23:21:43;8.70;99.90
51021;DHT22;38907;45.562;8.856;2023-03-04T23:26:45;8.50;99.90
51021;DHT22;38907;45.562;8.856;2023-03-04T23:31:49;8.60;99.90
51021;DHT22;38907;45.562;8.856;2023-03-04T23:36:52;8.80;99.90
51021;DHT22;38907;45.562;8.856;2023-03-04T23:41:57;8.60;99.90
51021;DHT22;38907;45.562;8.856;2023-03-04T23:47:00;8.50;99.90
51021;DHT22;38907;45.562;8.856;2023-03-04T23:52:02;8.40;99.90
51021;DHT22;38907;45.562;8.856;2023-03-04T23:57:04;8.30;99.90
